Barbados Meteorological Services
Auto gathered TAF list
Powered by Apparatus software
For Flight MT2714
Contact Number 1-(246)-535-0021/2/3/4/5/6
WEB: http://www.barbadosweather.org

**********************************************

2019/02/17 18:50
TAF TBPB 171700Z 1718/1818 09021KT 9999 SCT022= TAF TVSA 171700Z 1718/1818 08016KT 9999 SCT022


**********************************************
2019/02/17 18:06
TAF TAF TAPA 171700Z 1718/1818 09013KT 9999 SCT021 PROB30
TEMPO 1806/1812 SHRA


**********************************************
2019/02/17 19:36
TAF
AMD LPPR 171931Z 1719/1818 VRB03KT 9999 FEW020 SCT040
BECMG 1720/1722 6000 -RA SCT006 BKN012
TEMPO 1722/1806 3000 RADZ BR SCT002 BKN005
BECMG 1723/1801 35007KT
BECMG 1806/1809 35013KT 9999 NSW SCT025


**********************************************
2019/02/17 18:18
TAF LPPD 171700Z 1718/1818 34008KT 9999 SCT020
TEMPO 1718/1818 FEW018 BKN040
BECMG 1721/1724 VRB05KT
BECMG 1807/1810 22012KT


**********************************************
2019/02/17 18:18
TAF LPLA 171703Z 1718/1818 31015KT 9999 SCT030
BECMG 1718/1720 VRB05KT
BECMG 1801/1803 20012KT
TEMPO 1812/1818 21015G25KT
BECMG 1813/1815 SCT012 BKN020


**********************************************
2019/02/17 18:18
TAF TAF LPAZ 171700Z 1718/1824 34013KT 9999 SCT025
TEMPO 1718/1824 FEW018 BKN040
BECMG 1718/1721 02008KT
BECMG 1803/1806 VRB05KT
BECMG 1809/1812 20010KT
BECMG 1818/1821 20015KT


**********************************************
2019/02/17 18:25
TAF LIMC 171700Z 1718/1824 VRB05KT CAVOK
TEMPO 1800/1808 3000 BCFG


**********************************************
2019/02/17 18:25
TAF LFPO 171700Z 1718/1824 18006KT CAVOK PROB30
TEMPO 1803/1807 4000 BR
BECMG 1810/1812 20010KT
BECMG 1819/1821 18004KT BKN020


**********************************************
2019/02/17 18:27
TAF LEVT 171700Z 1718/1818 15005KT CAVOK TX14/1815Z TNM00/1805Z


**********************************************
2019/02/17 18:28
TAF LEMD 171700Z 1718/1824 VRB05KT CAVOK TX16/1816Z TN01/1806Z PROB30
TEMPO 1720/1812 06007KT
BECMG 1817/1818 03006KT


**********************************************
2019/02/17 18:33
TAF ESSA 171730Z 1718/1818 VRB02KT CAVOK
BECMG 1723/1801 BKN008 PROB40 1801/1806 0300 FG VV002
BECMG 1806/1808 9999 SCT008 BKN015 PROB40 1808/1814 BKN008


**********************************************
2019/02/17 18:27
TAF ELLX 171700Z 1718/1824 17005KT CAVOK


**********************************************
2012/04/19 12:15
TAF TAF EGTE 191401Z 1912/1924 31016KT 9999 SCT030 SCT035 PROB40
TEMPO 1915/1918 7000 SHRA BKN014


**********************************************
2019/02/17 18:06
TAF EGPK 171703Z 1718/1818 19015KT 9999 SCT018
TEMPO 1718/1815 20018G30KT PROB40
TEMPO 1800/1818 7000 SHRA BKN014
BECMG 1815/1818 25012KT
TEMPO 1815/1818 26015G25KT


**********************************************
2019/02/17 18:06
TAF EGNT 171659Z 1718/1818 21015KT 9999 FEW035
TEMPO 1718/1818 20018G28KT PROB40
TEMPO 1806/1809 7000 SHRA


**********************************************
2019/02/17 18:06
TAF TAF EGLL 171701Z 1718/1824 19008KT 9999 SCT018
TEMPO 1718/1810 BKN012 PROB30
TEMPO 1718/1724 8000 -RADZ PROB40
TEMPO 1803/1810 6000 BKN005
TEMPO 1810/1820 6000 SHRA RA BKN012


**********************************************
2019/02/17 18:06
TAF EGKK 171658Z 1718/1824 20008KT 9999 SCT018
TEMPO 1718/1824 BKN012 PROB30
TEMPO 1718/1803 7000 BKN008 PROB30
TEMPO 1803/1810 3000 BR BKN004 PROB40
TEMPO 1810/1823 7000 SHRA RA BKN008
BECMG 1821/1824 26010KT


**********************************************
2019/02/17 18:06
TAF EGFF 171659Z 1718/1818 21008KT 9999 SCT035
TEMPO 1811/1815 7000 SHRA PROB30
TEMPO 1811/1815 3000 +SHRA SHRAGS BKN010
BECMG 1812/1815 27010KT


**********************************************
2019/02/17 18:06
TAF EGCC 171659Z 1718/1824 19011KT 9999 FEW025 PROB30
TEMPO 1806/1812 7000 SHRA
BECMG 1815/1818 25008KT


**********************************************
2019/02/17 18:09
TAF TAF EGBB 171659Z 1718/1818 20008KT 9999 SCT020 PROB30
TEMPO 1722/1809 BKN014
TEMPO 1812/1818 7000 SHRA PROB30
TEMPO 1813/1818 4000 +SHRA SHRAGS BKN010


**********************************************
2019/02/17 18:27
TAF EDDM 171700Z 1718/1824 10005KT CAVOK
BECMG 1718/1720 VRB03KT PROB30
TEMPO 1802/1808 4000 BCFG
TEMPO 1810/1816 08005KT


**********************************************
2019/02/17 18:28
TAF EDDL 171700Z 1718/1824 16011KT CAVOK


**********************************************
2019/02/17 18:27
TAF EDDK 171700Z 1718/1824 13008KT CAVOK


**********************************************
2019/02/17 18:28
TAF EDDF 171700Z 1718/1824 VRB03KT CAVOK PROB30
TEMPO 1805/1808 1500 BCFG
BECMG 1808/1810 21005KT


**********************************************
2019/02/17 18:27
TAF TAF EBBR 171720Z 1718/1824 20007KT CAVOK


**********************************************